sensor_id;sensor_type;location;lat;lon;timestamp;pressure;altitude;pressure_sealevel;temperature;humidity
55191;BME280;41070;50.360;18.742;2023-04-21T00:03:43;98854.40;;;8.66;76.71
55191;BME280;41070;50.360;18.742;2023-04-21T00:21:16;98847.60;;;8.64;75.89
55191;BME280;41070;50.360;18.742;2023-04-21T00:24:44;98845.13;;;8.63;75.79
55191;BME280;41070;50.360;18.742;2023-04-21T00:27:50;98841.84;;;8.61;75.69
55191;BME280;41070;50.360;18.742;2023-04-21T00:42:01;98849.02;;;8.45;75.68
55191;BME280;41070;50.360;18.742;2023-04-21T00:54:53;98846.48;;;8.13;75.84
55191;BME280;41070;50.360;18.742;2023-04-21T01:08:58;98845.63;;;7.55;76.66
55191;BME280;41070;50.360;18.742;2023-04-21T01:21:39;98835.75;;;7.55;77.38
55191;BME280;41070;50.360;18.742;2023-04-21T01:39:14;98845.36;;;7.15;77.69
55191;BME280;41070;50.360;18.742;2023-04-21T01:43:23;98850.45;;;7.10;77.81
55191;BME280;41070;50.360;18.742;2023-04-21T01:52:09;98845.45;;;6.97;78.06
55191;BME280;41070;50.360;18.742;2023-04-21T02:05:21;98843.36;;;6.82;79.00
55191;BME280;41070;50.360;18.742;2023-04-21T02:35:37;98837.30;;;6.89;79.00
55191;BME280;41070;50.360;18.742;2023-04-21T02:45:13;98835.23;;;6.85;78.99
55191;BME280;41070;50.360;18.742;2023-04-21T02:48:20;98835.15;;;6.79;78.78
55191;BME280;41070;50.360;18.742;2023-04-21T03:47:38;98839.48;;;6.17;79.29
55191;BME280;41070;50.360;18.742;2023-04-21T04:24:06;98871.10;;;6.35;79.74
55191;BME280;41070;50.360;18.742;2023-04-21T04:37:41;98874.39;;;6.46;80.35
55191;BME280;41070;50.360;18.742;2023-04-21T04:46:37;98872.99;;;6.62;80.23
55191;BME280;41070;50.360;18.742;2023-04-21T04:50:09;98874.02;;;6.73;80.44
55191;BME280;41070;50.360;18.742;2023-04-21T04:52:53;98878.69;;;6.82;80.24
55191;BME280;41070;50.360;18.742;2023-04-21T04:55:59;98879.62;;;6.92;80.61
55191;BME280;41070;50.360;18.742;2023-04-21T04:59:08;98877.50;;;7.04;81.13
55191;BME280;41070;50.360;18.742;2023-04-21T05:02:15;98874.44;;;7.16;81.03
55191;BME280;41070;50.360;18.742;2023-04-21T05:08:30;98881.11;;;7.38;81.04
55191;BME280;41070;50.360;18.742;2023-04-21T05:11:38;98879.71;;;7.49;81.24
55191;BME280;41070;50.360;18.742;2023-04-21T05:14:45;98878.41;;;7.62;80.95
55191;BME280;41070;50.360;18.742;2023-04-21T05:17:55;98878.61;;;7.76;80.80
55191;BME280;41070;50.360;18.742;2023-04-21T05:21:03;98873.02;;;7.89;80.26
55191;BME280;41070;50.360;18.742;2023-04-21T05:24:09;98880.99;;;8.05;80.09
55191;BME280;41070;50.360;18.742;2023-04-21T05:27:23;98875.59;;;8.20;81.02
55191;BME280;41070;50.360;18.742;2023-04-21T05:30:31;98877.51;;;8.35;81.53
55191;BME280;41070;50.360;18.742;2023-04-21T05:33:49;98872.38;;;8.48;81.72
55191;BME280;41070;50.360;18.742;2023-04-21T05:36:51;98877.09;;;8.65;82.04
55191;BME280;41070;50.360;18.742;2023-04-21T05:43:03;98881.38;;;8.93;81.88
55191;BME280;41070;50.360;18.742;2023-04-21T05:49:18;98885.96;;;9.26;82.00
55191;BME280;41070;50.360;18.742;2023-04-21T05:52:27;98888.87;;;9.41;81.71
55191;BME280;41070;50.360;18.742;2023-04-21T05:55:34;98885.34;;;9.57;81.47
55191;BME280;41070;50.360;18.742;2023-04-21T05:58:41;98883.80;;;9.72;81.11
55191;BME280;41070;50.360;18.742;2023-04-21T06:01:51;98885.16;;;9.87;81.11
55191;BME280;41070;50.360;18.742;2023-04-21T06:05:00;98882.99;;;10.05;80.62
55191;BME280;41070;50.360;18.742;2023-04-21T06:08:07;98882.80;;;10.20;80.18
55191;BME280;41070;50.360;18.742;2023-04-21T06:11:17;98880.58;;;10.35;79.72
55191;BME280;41070;50.360;18.742;2023-04-21T06:18:04;98881.34;;;10.72;78.21
55191;BME280;41070;50.360;18.742;2023-04-21T06:20:54;98881.31;;;10.86;76.40
55191;BME280;41070;50.360;18.742;2023-04-21T06:24:01;98877.71;;;10.99;75.19
55191;BME280;41070;50.360;18.742;2023-04-21T06:30:15;98882.25;;;11.29;74.16
55191;BME280;41070;50.360;18.742;2023-04-21T06:33:24;98881.63;;;11.42;74.01
55191;BME280;41070;50.360;18.742;2023-04-21T06:36:57;98877.45;;;11.54;73.65
55191;BME280;41070;50.360;18.742;2023-04-21T06:40:02;98879.49;;;11.65;74.15
55191;BME280;41070;50.360;18.742;2023-04-21T06:46:42;98876.64;;;11.79;74.43
55191;BME280;41070;50.360;18.742;2023-04-21T06:49:58;98877.15;;;11.87;73.99
55191;BME280;41070;50.360;18.742;2023-04-21T06:52:42;98880.43;;;11.97;72.82
55191;BME280;41070;50.360;18.742;2023-04-21T06:59:03;98879.14;;;12.16;72.25
55191;BME280;41070;50.360;18.742;2023-04-21T07:02:35;98875.77;;;12.31;72.52
55191;BME280;41070;50.360;18.742;2023-04-21T07:05:18;98876.58;;;12.46;71.92
55191;BME280;41070;50.360;18.742;2023-04-21T07:14:09;98879.87;;;12.83;70.80
55191;BME280;41070;50.360;18.742;2023-04-21T07:24:33;98876.67;;;13.08;68.69
55191;BME280;41070;50.360;18.742;2023-04-21T07:30:13;98874.13;;;13.30;68.25
55191;BME280;41070;50.360;18.742;2023-04-21T07:33:41;98872.31;;;13.39;68.63
55191;BME280;41070;50.360;18.742;2023-04-21T07:40:11;98869.74;;;13.56;67.91
55191;BME280;41070;50.360;18.742;2023-04-21T07:43:39;98866.73;;;13.63;67.10
55191;BME280;41070;50.360;18.742;2023-04-21T07:48:59;98860.48;;;13.75;66.40
55191;BME280;41070;50.360;18.742;2023-04-21T07:52:14;98857.48;;;13.87;65.70
55191;BME280;41070;50.360;18.742;2023-04-21T08:02:30;98855.56;;;14.19;65.29
55191;BME280;41070;50.360;18.742;2023-04-21T08:06:02;98856.41;;;14.29;63.94
55191;BME280;41070;50.360;18.742;2023-04-21T08:15:59;98856.25;;;14.62;61.02
55191;BME280;41070;50.360;18.742;2023-04-21T08:22:08;98856.33;;;14.84;58.30
55191;BME280;41070;50.360;18.742;2023-04-21T08:29:04;98853.30;;;15.12;55.78
55191;BME280;41070;50.360;18.742;2023-04-21T08:35:37;98851.90;;;15.29;52.83
55191;BME280;41070;50.360;18.742;2023-04-21T08:38:55;98849.08;;;15.38;51.37
55191;BME280;41070;50.360;18.742;2023-04-21T08:45:54;98847.31;;;15.72;50.62
55191;BME280;41070;50.360;18.742;2023-04-21T08:48:44;98848.50;;;15.62;47.17
55191;BME280;41070;50.360;18.742;2023-04-21T08:52:20;98849.70;;;15.67;46.90
55191;BME280;41070;50.360;18.742;2023-04-21T08:55:30;98851.34;;;15.89;47.58
55191;BME280;41070;50.360;18.742;2023-04-21T08:58:57;98847.10;;;15.98;45.43
55191;BME280;41070;50.360;18.742;2023-04-21T10:58:14;98784.42;;;17.98;35.55
55191;BME280;41070;50.360;18.742;2023-04-21T11:01:21;98779.90;;;17.68;36.12
55191;BME280;41070;50.360;18.742;2023-04-21T11:23:07;98761.97;;;17.67;37.48
55191;BME280;41070;50.360;18.742;2023-04-21T11:29:31;98762.55;;;18.05;35.79
55191;BME280;41070;50.360;18.742;2023-04-21T11:36:09;98754.60;;;18.38;36.82
55191;BME280;41070;50.360;18.742;2023-04-21T11:43:01;98747.46;;;18.04;34.90
55191;BME280;41070;50.360;18.742;2023-04-21T11:49:31;98750.20;;;17.54;34.55
55191;BME280;41070;50.360;18.742;2023-04-21T11:58:50;98741.46;;;17.51;36.47
55191;BME280;41070;50.360;18.742;2023-04-21T12:08:27;98743.98;;;18.03;35.15
55191;BME280;41070;50.360;18.742;2023-04-21T12:11:31;98739.48;;;18.12;35.17
55191;BME280;41070;50.360;18.742;2023-04-21T12:14:40;98739.73;;;17.86;35.88
55191;BME280;41070;50.360;18.742;2023-04-21T12:17:48;98732.73;;;17.57;36.93
55191;BME280;41070;50.360;18.742;2023-04-21T12:20:56;98731.48;;;17.37;36.09
55191;BME280;41070;50.360;18.742;2023-04-21T12:24:03;98726.31;;;17.48;36.15
55191;BME280;41070;50.360;18.742;2023-04-21T12:27:13;98724.23;;;17.41;34.60
55191;BME280;41070;50.360;18.742;2023-04-21T12:30:56;98726.20;;;17.25;35.65
55191;BME280;41070;50.360;18.742;2023-04-21T12:34:02;98718.19;;;17.42;36.82
55191;BME280;41070;50.360;18.742;2023-04-21T12:37:11;98713.80;;;17.70;35.78
55191;BME280;41070;50.360;18.742;2023-04-21T12:40:17;98711.04;;;17.96;35.49
55191;BME280;41070;50.360;18.742;2023-04-21T12:43:25;98707.22;;;18.15;35.33
55191;BME280;41070;50.360;18.742;2023-04-21T12:46:31;98715.20;;;18.06;32.91
55191;BME280;41070;50.360;18.742;2023-04-21T12:49:40;98711.04;;;17.80;34.00
55191;BME280;41070;50.360;18.742;2023-04-21T12:52:45;98711.09;;;17.60;34.36
55191;BME280;41070;50.360;18.742;2023-04-21T12:55:51;98709.16;;;17.44;34.44
55191;BME280;41070;50.360;18.742;2023-04-21T12:58:59;98702.10;;;17.27;34.55
55191;BME280;41070;50.360;18.742;2023-04-21T13:02:06;98700.48;;;17.30;34.43
55191;BME280;41070;50.360;18.742;2023-04-21T13:05:37;98699.19;;;17.52;34.05
55191;BME280;41070;50.360;18.742;2023-04-21T13:08:20;98693.48;;;17.70;33.70
55191;BME280;41070;50.360;18.742;2023-04-21T13:11:27;98699.27;;;17.74;32.94
55191;BME280;41070;50.360;18.742;2023-04-21T13:14:34;98694.27;;;17.89;33.60
55191;BME280;41070;50.360;18.742;2023-04-21T13:17:41;98691.84;;;18.12;34.40
55191;BME280;41070;50.360;18.742;2023-04-21T13:20:48;98691.04;;;18.23;33.84
55191;BME280;41070;50.360;18.742;2023-04-21T13:23:58;98688.02;;;18.19;34.71
55191;BME280;41070;50.360;18.742;2023-04-21T13:27:03;98687.76;;;17.99;34.46
55191;BME280;41070;50.360;18.742;2023-04-21T13:30:10;98689.38;;;17.67;34.92
55191;BME280;41070;50.360;18.742;2023-04-21T13:33:16;98685.73;;;17.38;35.85
55191;BME280;41070;50.360;18.742;2023-04-21T13:36:23;98681.55;;;17.25;35.14
55191;BME280;41070;50.360;18.742;2023-04-21T13:39:30;98671.91;;;17.32;36.20
55191;BME280;41070;50.360;18.742;2023-04-21T13:42:37;98669.83;;;17.56;36.08
55191;BME280;41070;50.360;18.742;2023-04-21T13:45:47;98662.48;;;17.73;36.42
55191;BME280;41070;50.360;18.742;2023-04-21T13:48:52;98667.56;;;18.05;37.03
55191;BME280;41070;50.360;18.742;2023-04-21T13:51:58;98667.47;;;18.13;35.70
55191;BME280;41070;50.360;18.742;2023-04-21T13:55:05;98667.89;;;17.94;34.52
55191;BME280;41070;50.360;18.742;2023-04-21T13:58:13;98663.80;;;17.67;34.61
55191;BME280;41070;50.360;18.742;2023-04-21T14:01:20;98664.80;;;17.48;35.26
55191;BME280;41070;50.360;18.742;2023-04-21T14:04:25;98659.70;;;17.34;35.60
55191;BME280;41070;50.360;18.742;2023-04-21T14:07:31;98654.36;;;17.33;35.91
55191;BME280;41070;50.360;18.742;2023-04-21T14:10:40;98653.44;;;17.41;35.83
55191;BME280;41070;50.360;18.742;2023-04-21T14:13:46;98649.64;;;17.64;35.45
55191;BME280;41070;50.360;18.742;2023-04-21T14:16:53;98647.48;;;17.89;35.11
55191;BME280;41070;50.360;18.742;2023-04-21T14:19:59;98644.70;;;18.19;35.65
55191;BME280;41070;50.360;18.742;2023-04-21T14:23:06;98646.30;;;18.48;36.24
55191;BME280;41070;50.360;18.742;2023-04-21T14:26:13;98639.45;;;18.55;34.67
55191;BME280;41070;50.360;18.742;2023-04-21T14:29:20;98642.27;;;18.50;34.22
55191;BME280;41070;50.360;18.742;2023-04-21T14:32:26;98637.83;;;18.40;34.30
55191;BME280;41070;50.360;18.742;2023-04-21T14:35:34;98634.38;;;18.28;34.62
55191;BME280;41070;50.360;18.742;2023-04-21T14:38:43;98642.50;;;18.03;34.43
55191;BME280;41070;50.360;18.742;2023-04-21T14:41:48;98633.09;;;17.73;35.45
55191;BME280;41070;50.360;18.742;2023-04-21T14:44:55;98629.40;;;17.55;35.56
55191;BME280;41070;50.360;18.742;2023-04-21T14:48:02;98628.40;;;17.63;36.44
55191;BME280;41070;50.360;18.742;2023-04-21T14:51:10;98622.73;;;17.79;35.86
55191;BME280;41070;50.360;18.742;2023-04-21T14:54:16;98623.44;;;17.85;33.72
55191;BME280;41070;50.360;18.742;2023-04-21T14:57:23;98616.86;;;17.88;33.68
55191;BME280;41070;50.360;18.742;2023-04-21T15:00:54;98618.40;;;17.95;33.76
55191;BME280;41070;50.360;18.742;2023-04-21T15:03:37;98614.72;;;18.05;34.75
55191;BME280;41070;50.360;18.742;2023-04-21T15:06:43;98611.73;;;18.24;35.01
55191;BME280;41070;50.360;18.742;2023-04-21T15:09:51;98613.77;;;18.37;33.94
55191;BME280;41070;50.360;18.742;2023-04-21T15:12:58;98610.83;;;18.38;33.40
55191;BME280;41070;50.360;18.742;2023-04-21T15:16:04;98611.80;;;18.44;33.67
55191;BME280;41070;50.360;18.742;2023-04-21T15:19:36;98610.14;;;18.34;33.97
55191;BME280;41070;50.360;18.742;2023-04-21T15:22:19;98608.02;;;18.23;34.09
55191;BME280;41070;50.360;18.742;2023-04-21T15:25:25;98606.98;;;18.27;34.75
55191;BME280;41070;50.360;18.742;2023-04-21T15:28:32;98604.89;;;18.30;34.83
55191;BME280;41070;50.360;18.742;2023-04-21T15:31:39;98600.39;;;18.16;34.70
55191;BME280;41070;50.360;18.742;2023-04-21T15:34:45;98596.27;;;17.96;34.66
55191;BME280;41070;50.360;18.742;2023-04-21T15:37:52;98592.98;;;17.68;34.18
55191;BME280;41070;50.360;18.742;2023-04-21T15:40:59;98591.55;;;17.42;34.06
55191;BME280;41070;50.360;18.742;2023-04-21T15:44:06;98590.09;;;17.22;35.13
55191;BME280;41070;50.360;18.742;2023-04-21T15:50:54;98592.23;;;16.93;36.13
55191;BME280;41070;50.360;18.742;2023-04-21T15:53:37;98589.42;;;16.82;36.67
55191;BME280;41070;50.360;18.742;2023-04-21T15:56:33;98585.23;;;16.69;37.23
55191;BME280;41070;50.360;18.742;2023-04-21T15:59:41;98583.90;;;16.65;37.26
55191;BME280;41070;50.360;18.742;2023-04-21T16:02:47;98581.14;;;16.70;37.10
55191;BME280;41070;50.360;18.742;2023-04-21T16:05:54;98579.86;;;16.84;37.42
55191;BME280;41070;50.360;18.742;2023-04-21T16:09:01;98579.12;;;16.98;36.94
55191;BME280;41070;50.360;18.742;2023-04-21T16:12:08;98576.11;;;17.07;36.22
55191;BME280;41070;50.360;18.742;2023-04-21T16:15:16;98574.56;;;17.13;35.67
55191;BME280;41070;50.360;18.742;2023-04-21T16:18:22;98571.77;;;17.15;35.14
55191;BME280;41070;50.360;18.742;2023-04-21T16:21:29;98575.10;;;17.18;34.86
55191;BME280;41070;50.360;18.742;2023-04-21T16:24:36;98571.93;;;17.21;34.91
55191;BME280;41070;50.360;18.742;2023-04-21T16:27:43;98571.01;;;17.22;35.21
55191;BME280;41070;50.360;18.742;2023-04-21T16:30:53;98574.10;;;17.20;35.21
55191;BME280;41070;50.360;18.742;2023-04-21T16:34:00;98570.85;;;17.16;35.44
55191;BME280;41070;50.360;18.742;2023-04-21T16:37:06;98566.08;;;17.10;35.33
55191;BME280;41070;50.360;18.742;2023-04-21T16:40:13;98567.46;;;17.09;35.44
55191;BME280;41070;50.360;18.742;2023-04-21T16:43:20;98564.98;;;16.99;35.18
55191;BME280;41070;50.360;18.742;2023-04-21T16:46:26;98566.70;;;16.95;35.94
55191;BME280;41070;50.360;18.742;2023-04-21T16:49:33;98567.60;;;16.90;35.67
55191;BME280;41070;50.360;18.742;2023-04-21T16:52:41;98564.27;;;16.84;36.04
55191;BME280;41070;50.360;18.742;2023-04-21T16:55:47;98565.18;;;16.80;35.56
55191;BME280;41070;50.360;18.742;2023-04-21T16:58:54;98569.86;;;16.74;35.52
55191;BME280;41070;50.360;18.742;2023-04-21T17:02:00;98567.45;;;16.67;35.88
55191;BME280;41070;50.360;18.742;2023-04-21T17:05:08;98568.23;;;16.60;35.71
55191;BME280;41070;50.360;18.742;2023-04-21T17:08:16;98570.52;;;16.52;36.05
55191;BME280;41070;50.360;18.742;2023-04-21T17:11:24;98566.04;;;16.45;36.42
55191;BME280;41070;50.360;18.742;2023-04-21T17:14:30;98565.06;;;16.34;36.36
55191;BME280;41070;50.360;18.742;2023-04-21T17:18:01;98562.80;;;16.25;36.10
55191;BME280;41070;50.360;18.742;2023-04-21T17:20:44;98563.23;;;16.14;36.50
55191;BME280;41070;50.360;18.742;2023-04-21T17:23:52;98562.17;;;16.02;36.76
55191;BME280;41070;50.360;18.742;2023-04-21T17:26:58;98566.81;;;15.89;36.54
55191;BME280;41070;50.360;18.742;2023-04-21T17:30:05;98564.89;;;15.75;36.59
55191;BME280;41070;50.360;18.742;2023-04-21T17:33:12;98562.48;;;15.62;36.65
55191;BME280;41070;50.360;18.742;2023-04-21T17:39:23;98565.38;;;15.35;37.61
55191;BME280;41070;50.360;18.742;2023-04-21T17:42:31;98564.52;;;15.22;37.72
55191;BME280;41070;50.360;18.742;2023-04-21T17:45:38;98566.02;;;15.08;37.86
55191;BME280;41070;50.360;18.742;2023-04-21T17:48:44;98563.27;;;14.93;38.34
55191;BME280;41070;50.360;18.742;2023-04-21T17:51:52;98568.76;;;14.77;38.56
55191;BME280;41070;50.360;18.742;2023-04-21T17:54:58;98570.12;;;14.60;39.09
55191;BME280;41070;50.360;18.742;2023-04-21T17:58:06;98573.63;;;14.46;39.54
55191;BME280;41070;50.360;18.742;2023-04-21T18:01:13;98578.16;;;14.30;40.18
55191;BME280;41070;50.360;18.742;2023-04-21T18:04:19;98575.41;;;14.12;40.94
55191;BME280;41070;50.360;18.742;2023-04-21T18:07:26;98576.45;;;13.98;40.76
55191;BME280;41070;50.360;18.742;2023-04-21T18:10:34;98578.39;;;13.87;40.72
55191;BME280;41070;50.360;18.742;2023-04-21T18:13:40;98578.04;;;13.78;40.79
55191;BME280;41070;50.360;18.742;2023-04-21T18:16:29;98582.98;;;13.69;41.02
55191;BME280;41070;50.360;18.742;2023-04-21T18:19:37;98584.33;;;13.61;41.23
55191;BME280;41070;50.360;18.742;2023-04-21T18:22:43;98581.05;;;13.52;41.42
55191;BME280;41070;50.360;18.742;2023-04-21T18:25:50;98586.04;;;13.42;41.34
55191;BME280;41070;50.360;18.742;2023-04-21T18:28:57;98584.72;;;13.35;41.27
55191;BME280;41070;50.360;18.742;2023-04-21T18:38:34;98589.11;;;13.19;41.43
55191;BME280;41070;50.360;18.742;2023-04-21T18:45:09;98584.30;;;13.02;41.81
55191;BME280;41070;50.360;18.742;2023-04-21T18:48:51;98586.04;;;12.91;42.03
55191;BME280;41070;50.360;18.742;2023-04-21T18:51:58;98585.42;;;12.82;42.30
55191;BME280;41070;50.360;18.742;2023-04-21T18:55:05;98587.95;;;12.73;42.52
55191;BME280;41070;50.360;18.742;2023-04-21T18:58:12;98585.16;;;12.64;42.67
55191;BME280;41070;50.360;18.742;2023-04-21T19:01:18;98583.08;;;12.54;42.85
55191;BME280;41070;50.360;18.742;2023-04-21T19:04:26;98587.28;;;12.45;43.00
55191;BME280;41070;50.360;18.742;2023-04-21T19:07:34;98590.35;;;12.37;43.18
55191;BME280;41070;50.360;18.742;2023-04-21T19:26:01;98583.02;;;12.24;42.83
55191;BME280;41070;50.360;18.742;2023-04-21T20:03:08;98589.04;;;11.86;44.15
55191;BME280;41070;50.360;18.742;2023-04-21T20:19:00;98594.76;;;11.63;44.94
55191;BME280;41070;50.360;18.742;2023-04-21T20:28:46;98598.81;;;11.57;45.24
55191;BME280;41070;50.360;18.742;2023-04-21T20:38:30;98598.34;;;11.30;46.94
55191;BME280;41070;50.360;18.742;2023-04-21T20:57:43;98603.66;;;10.55;50.59
55191;BME280;41070;50.360;18.742;2023-04-21T21:00:51;98599.42;;;10.49;50.74
55191;BME280;41070;50.360;18.742;2023-04-21T21:10:11;98600.58;;;10.40;51.23
55191;BME280;41070;50.360;18.742;2023-04-21T21:13:38;98600.36;;;10.36;51.60
55191;BME280;41070;50.360;18.742;2023-04-21T21:17:25;98599.64;;;10.34;51.23
55191;BME280;41070;50.360;18.742;2023-04-21T21:20:05;98602.45;;;10.31;52.52
55191;BME280;41070;50.360;18.742;2023-04-21T21:26:13;98605.28;;;10.07;53.59
55191;BME280;41070;50.360;18.742;2023-04-21T21:29:42;98604.18;;;9.99;53.89
55191;BME280;41070;50.360;18.742;2023-04-21T21:33:12;98598.27;;;9.90;54.42
55191;BME280;41070;50.360;18.742;2023-04-21T21:36:29;98596.94;;;9.81;54.41
55191;BME280;41070;50.360;18.742;2023-04-21T21:40:17;98598.50;;;9.79;53.82
55191;BME280;41070;50.360;18.742;2023-04-21T21:43:23;98600.52;;;9.88;52.54
55191;BME280;41070;50.360;18.742;2023-04-21T21:46:34;98603.96;;;9.99;52.07
55191;BME280;41070;50.360;18.742;2023-04-21T21:49:41;98601.09;;;10.05;51.59
55191;BME280;41070;50.360;18.742;2023-04-21T21:52:54;98601.90;;;10.13;51.26
55191;BME280;41070;50.360;18.742;2023-04-21T21:56:00;98603.33;;;10.16;50.96
55191;BME280;41070;50.360;18.742;2023-04-21T21:59:08;98603.87;;;10.19;50.81
55191;BME280;41070;50.360;18.742;2023-04-21T22:02:55;98602.12;;;10.22;50.58
55191;BME280;41070;50.360;18.742;2023-04-21T22:08:51;98602.30;;;10.27;50.53
55191;BME280;41070;50.360;18.742;2023-04-21T22:12:40;98610.89;;;10.28;51.07
55191;BME280;41070;50.360;18.742;2023-04-21T22:22:43;98603.38;;;9.95;54.93
55191;BME280;41070;50.360;18.742;2023-04-21T22:43:17;98601.11;;;9.37;55.90
55191;BME280;41070;50.360;18.742;2023-04-21T22:53:10;98599.95;;;9.35;56.64
55191;BME280;41070;50.360;18.742;2023-04-21T23:16:49;98605.59;;;9.01;57.73
55191;BME280;41070;50.360;18.742;2023-04-21T23:19:56;98602.63;;;8.99;57.98
55191;BME280;41070;50.360;18.742;2023-04-21T23:42:38;98584.05;;;8.31;59.91
55191;BME280;41070;50.360;18.742;2023-04-21T23:46:49;98592.55;;;8.23;60.28
